sensor_id;sensor_type;location;lat;lon;timestamp;temperature;humidity
12303;DHT22;6214;48.012;7.862;2023-02-26T00:01:22;4.40;99.90
12303;DHT22;6214;48.012;7.862;2023-02-26T00:03:55;4.30;99.90
12303;DHT22;6214;48.012;7.862;2023-02-26T00:06:24;4.30;99.90
12303;DHT22;6214;48.012;7.862;2023-02-26T00:08:52;4.20;99.90
12303;DHT22;6214;48.012;7.862;2023-02-26T00:11:20;4.20;99.90
12303;DHT22;6214;48.012;7.862;2023-02-26T00:13:47;4.10;99.90
12303;DHT22;6214;48.012;7.862;2023-02-26T00:18:55;4.00;99.90
12303;DHT22;6214;48.012;7.862;2023-02-26T00:21:23;4.10;99.90
12303;DHT22;6214;48.012;7.862;2023-02-26T00:23:50;4.20;99.90
12303;DHT22;6214;48.012;7.862;2023-02-26T00:26:17;4.10;99.90
12303;DHT22;6214;48.012;7.862;2023-02-26T00:28:45;3.90;99.90
12303;DHT22;6214;48.012;7.862;2023-02-26T00:31:14;3.80;99.90
12303;DHT22;6214;48.012;7.862;2023-02-26T00:33:42;3.70;99.90
12303;DHT22;6214;48.012;7.862;2023-02-26T00:41:31;3.70;99.90
12303;DHT22;6214;48.012;7.862;2023-02-26T00:43:58;3.70;99.90
12303;DHT22;6214;48.012;7.862;2023-02-26T00:55:14;3.60;99.90
12303;DHT22;6214;48.012;7.862;2023-02-26T00:57:41;3.50;99.90
12303;DHT22;6214;48.012;7.862;2023-02-26T01:00:10;3.50;99.90
12303;DHT22;6214;48.012;7.862;2023-02-26T01:02:38;3.40;99.90
12303;DHT22;6214;48.012;7.862;2023-02-26T01:05:06;3.40;99.90
12303;DHT22;6214;48.012;7.862;2023-02-26T01:07:44;3.50;99.90
12303;DHT22;6214;48.012;7.862;2023-02-26T01:10:13;3.40;99.90
12303;DHT22;6214;48.012;7.862;2023-02-26T01:12:41;3.50;99.90
12303;DHT22;6214;48.012;7.862;2023-02-26T01:15:08;3.40;99.90
12303;DHT22;6214;48.012;7.862;2023-02-26T01:17:46;3.30;99.90
12303;DHT22;6214;48.012;7.862;2023-02-26T01:20:16;3.10;99.90
12303;DHT22;6214;48.012;7.862;2023-02-26T01:23:02;3.00;99.90
12303;DHT22;6214;48.012;7.862;2023-02-26T01:25:38;2.90;99.90
12303;DHT22;6214;48.012;7.862;2023-02-26T01:28:06;2.70;99.90
12303;DHT22;6214;48.012;7.862;2023-02-26T01:30:34;2.60;99.90
12303;DHT22;6214;48.012;7.862;2023-02-26T01:38:19;2.30;99.90
12303;DHT22;6214;48.012;7.862;2023-02-26T01:41:11;2.30;99.90
12303;DHT22;6214;48.012;7.862;2023-02-26T01:49:15;2.40;99.90
12303;DHT22;6214;48.012;7.862;2023-02-26T01:51:55;2.40;99.90
12303;DHT22;6214;48.012;7.862;2023-02-26T01:54:33;2.40;99.90
12303;DHT22;6214;48.012;7.862;2023-02-26T01:57:10;2.40;99.90
12303;DHT22;6214;48.012;7.862;2023-02-26T01:59:44;2.40;99.90
12303;DHT22;6214;48.012;7.862;2023-02-26T02:02:18;2.40;99.90
12303;DHT22;6214;48.012;7.862;2023-02-26T02:04:46;2.30;99.90
12303;DHT22;6214;48.012;7.862;2023-02-26T02:07:14;2.30;99.90
12303;DHT22;6214;48.012;7.862;2023-02-26T02:09:41;2.40;99.90
12303;DHT22;6214;48.012;7.862;2023-02-26T02:15:20;2.30;99.90
12303;DHT22;6214;48.012;7.862;2023-02-26T02:24:00;2.20;99.90
12303;DHT22;6214;48.012;7.862;2023-02-26T02:26:52;2.10;99.90
12303;DHT22;6214;48.012;7.862;2023-02-26T02:32:17;2.10;99.90
12303;DHT22;6214;48.012;7.862;2023-02-26T02:37:33;2.20;99.90
12303;DHT22;6214;48.012;7.862;2023-02-26T02:40:10;2.10;99.90
12303;DHT22;6214;48.012;7.862;2023-02-26T02:42:58;2.20;99.90
12303;DHT22;6214;48.012;7.862;2023-02-26T02:45:41;2.20;99.90
12303;DHT22;6214;48.012;7.862;2023-02-26T02:48:16;2.10;99.90
12303;DHT22;6214;48.012;7.862;2023-02-26T02:50:48;2.10;99.90
12303;DHT22;6214;48.012;7.862;2023-02-26T02:53:26;2.10;99.90
12303;DHT22;6214;48.012;7.862;2023-02-26T02:58:41;2.00;99.90
12303;DHT22;6214;48.012;7.862;2023-02-26T03:01:11;1.90;99.90
12303;DHT22;6214;48.012;7.862;2023-02-26T03:06:10;2.00;99.90
12303;DHT22;6214;48.012;7.862;2023-02-26T03:08:39;2.10;99.90
12303;DHT22;6214;48.012;7.862;2023-02-26T03:11:08;2.20;99.90
12303;DHT22;6214;48.012;7.862;2023-02-26T03:13:35;2.20;99.90
12303;DHT22;6214;48.012;7.862;2023-02-26T03:24:24;1.90;99.90
12303;DHT22;6214;48.012;7.862;2023-02-26T03:27:12;1.80;99.90
12303;DHT22;6214;48.012;7.862;2023-02-26T03:35:23;2.10;99.90
12303;DHT22;6214;48.012;7.862;2023-02-26T03:37:56;2.00;99.90
12303;DHT22;6214;48.012;7.862;2023-02-26T03:40:31;2.00;99.90
12303;DHT22;6214;48.012;7.862;2023-02-26T03:43:05;2.00;99.90
12303;DHT22;6214;48.012;7.862;2023-02-26T03:45:35;2.00;99.90
12303;DHT22;6214;48.012;7.862;2023-02-26T03:48:06;2.00;99.90
12303;DHT22;6214;48.012;7.862;2023-02-26T03:50:55;1.90;99.90
12303;DHT22;6214;48.012;7.862;2023-02-26T03:53:27;1.80;99.90
12303;DHT22;6214;48.012;7.862;2023-02-26T03:58:48;1.90;99.90
12303;DHT22;6214;48.012;7.862;2023-02-26T04:01:21;1.80;99.90
12303;DHT22;6214;48.012;7.862;2023-02-26T04:03:54;1.80;99.90
12303;DHT22;6214;48.012;7.862;2023-02-26T04:06:23;1.80;99.90
12303;DHT22;6214;48.012;7.862;2023-02-26T04:08:51;1.80;99.90
12303;DHT22;6214;48.012;7.862;2023-02-26T04:13:48;1.70;99.90
12303;DHT22;6214;48.012;7.862;2023-02-26T04:16:16;1.60;99.90
12303;DHT22;6214;48.012;7.862;2023-02-26T04:18:44;1.60;99.90
12303;DHT22;6214;48.012;7.862;2023-02-26T04:21:16;1.60;99.90
12303;DHT22;6214;48.012;7.862;2023-02-26T04:23:44;1.60;99.90
12303;DHT22;6214;48.012;7.862;2023-02-26T04:26:11;1.50;99.90
12303;DHT22;6214;48.012;7.862;2023-02-26T04:28:39;1.50;99.90
12303;DHT22;6214;48.012;7.862;2023-02-26T04:31:07;1.40;99.90
12303;DHT22;6214;48.012;7.862;2023-02-26T04:33:35;1.50;99.90
12303;DHT22;6214;48.012;7.862;2023-02-26T04:36:02;1.50;99.90
12303;DHT22;6214;48.012;7.862;2023-02-26T04:38:30;1.60;99.90
12303;DHT22;6214;48.012;7.862;2023-02-26T04:40:57;1.70;99.90
12303;DHT22;6214;48.012;7.862;2023-02-26T04:43:24;1.70;99.90
12303;DHT22;6214;48.012;7.862;2023-02-26T04:45:51;1.60;99.90
12303;DHT22;6214;48.012;7.862;2023-02-26T04:48:18;1.60;99.90
12303;DHT22;6214;48.012;7.862;2023-02-26T04:50:45;1.60;99.90
12303;DHT22;6214;48.012;7.862;2023-02-26T04:53:12;1.60;99.90
12303;DHT22;6214;48.012;7.862;2023-02-26T04:55:39;1.60;99.90
12303;DHT22;6214;48.012;7.862;2023-02-26T04:58:07;1.60;99.90
12303;DHT22;6214;48.012;7.862;2023-02-26T05:00:34;1.50;99.90
12303;DHT22;6214;48.012;7.862;2023-02-26T05:03:01;1.40;99.90
12303;DHT22;6214;48.012;7.862;2023-02-26T05:05:28;1.40;99.90
12303;DHT22;6214;48.012;7.862;2023-02-26T05:07:55;1.30;99.90
12303;DHT22;6214;48.012;7.862;2023-02-26T05:10:23;1.30;99.90
12303;DHT22;6214;48.012;7.862;2023-02-26T05:12:50;1.30;99.90
12303;DHT22;6214;48.012;7.862;2023-02-26T05:15:17;1.30;99.90
12303;DHT22;6214;48.012;7.862;2023-02-26T05:17:45;1.20;99.90
12303;DHT22;6214;48.012;7.862;2023-02-26T05:20:12;1.20;99.90
12303;DHT22;6214;48.012;7.862;2023-02-26T05:22:39;1.00;99.90
12303;DHT22;6214;48.012;7.862;2023-02-26T05:25:06;0.90;99.90
12303;DHT22;6214;48.012;7.862;2023-02-26T05:27:33;0.90;99.90
12303;DHT22;6214;48.012;7.862;2023-02-26T05:30:00;0.90;99.90
12303;DHT22;6214;48.012;7.862;2023-02-26T05:32:27;1.00;99.90
12303;DHT22;6214;48.012;7.862;2023-02-26T05:34:54;0.90;99.90
12303;DHT22;6214;48.012;7.862;2023-02-26T05:37:21;1.10;99.90
12303;DHT22;6214;48.012;7.862;2023-02-26T05:39:48;1.10;99.90
12303;DHT22;6214;48.012;7.862;2023-02-26T05:42:15;1.20;99.90
12303;DHT22;6214;48.012;7.862;2023-02-26T05:44:42;1.30;99.90
12303;DHT22;6214;48.012;7.862;2023-02-26T05:47:09;1.30;99.90
12303;DHT22;6214;48.012;7.862;2023-02-26T05:49:36;1.30;99.90
12303;DHT22;6214;48.012;7.862;2023-02-26T05:52:02;1.50;99.90
12303;DHT22;6214;48.012;7.862;2023-02-26T05:54:29;1.40;99.90
12303;DHT22;6214;48.012;7.862;2023-02-26T05:56:56;1.50;99.90
12303;DHT22;6214;48.012;7.862;2023-02-26T05:59:23;1.50;99.90
12303;DHT22;6214;48.012;7.862;2023-02-26T06:01:50;1.30;99.90
12303;DHT22;6214;48.012;7.862;2023-02-26T06:04:17;1.30;99.90
12303;DHT22;6214;48.012;7.862;2023-02-26T06:06:44;1.30;99.90
12303;DHT22;6214;48.012;7.862;2023-02-26T06:09:11;1.70;99.90
12303;DHT22;6214;48.012;7.862;2023-02-26T06:11:38;1.20;99.90
12303;DHT22;6214;48.012;7.862;2023-02-26T06:14:06;1.20;99.90
12303;DHT22;6214;48.012;7.862;2023-02-26T06:16:33;1.10;99.90
12303;DHT22;6214;48.012;7.862;2023-02-26T06:19:01;1.10;99.90
12303;DHT22;6214;48.012;7.862;2023-02-26T06:21:29;1.00;99.90
12303;DHT22;6214;48.012;7.862;2023-02-26T06:23:55;1.10;99.90
12303;DHT22;6214;48.012;7.862;2023-02-26T06:26:22;1.20;99.90
12303;DHT22;6214;48.012;7.862;2023-02-26T06:28:49;1.20;99.90
12303;DHT22;6214;48.012;7.862;2023-02-26T06:31:16;1.20;99.90
12303;DHT22;6214;48.012;7.862;2023-02-26T06:33:43;1.10;99.90
12303;DHT22;6214;48.012;7.862;2023-02-26T06:36:10;1.20;99.90
12303;DHT22;6214;48.012;7.862;2023-02-26T06:38:37;1.30;99.90
12303;DHT22;6214;48.012;7.862;2023-02-26T06:41:04;1.50;99.90
12303;DHT22;6214;48.012;7.862;2023-02-26T06:43:31;1.50;99.90
12303;DHT22;6214;48.012;7.862;2023-02-26T06:45:58;1.60;99.90
12303;DHT22;6214;48.012;7.862;2023-02-26T06:48:26;1.80;99.90
12303;DHT22;6214;48.012;7.862;2023-02-26T06:50:54;1.90;99.90
12303;DHT22;6214;48.012;7.862;2023-02-26T06:53:21;1.90;99.90
12303;DHT22;6214;48.012;7.862;2023-02-26T06:55:50;1.90;99.90
12303;DHT22;6214;48.012;7.862;2023-02-26T06:58:18;2.00;99.90
12303;DHT22;6214;48.012;7.862;2023-02-26T07:00:46;2.10;99.90
12303;DHT22;6214;48.012;7.862;2023-02-26T07:03:14;2.10;99.90
12303;DHT22;6214;48.012;7.862;2023-02-26T07:05:41;2.20;99.90
12303;DHT22;6214;48.012;7.862;2023-02-26T07:08:10;2.10;99.90
12303;DHT22;6214;48.012;7.862;2023-02-26T07:10:37;2.10;99.90
12303;DHT22;6214;48.012;7.862;2023-02-26T07:13:04;2.00;99.90
12303;DHT22;6214;48.012;7.862;2023-02-26T07:15:31;2.20;99.90
12303;DHT22;6214;48.012;7.862;2023-02-26T07:17:58;2.10;99.90
12303;DHT22;6214;48.012;7.862;2023-02-26T07:20:27;2.10;99.90
12303;DHT22;6214;48.012;7.862;2023-02-26T07:22:55;2.30;99.90
12303;DHT22;6214;48.012;7.862;2023-02-26T07:25:23;2.40;99.90
12303;DHT22;6214;48.012;7.862;2023-02-26T07:27:51;2.70;99.90
12303;DHT22;6214;48.012;7.862;2023-02-26T07:30:18;2.90;99.90
12303;DHT22;6214;48.012;7.862;2023-02-26T07:32:45;2.70;99.90
12303;DHT22;6214;48.012;7.862;2023-02-26T07:35:12;2.60;99.90
12303;DHT22;6214;48.012;7.862;2023-02-26T07:37:39;2.60;99.90
12303;DHT22;6214;48.012;7.862;2023-02-26T07:40:06;2.50;99.90
12303;DHT22;6214;48.012;7.862;2023-02-26T07:42:34;2.60;99.90
12303;DHT22;6214;48.012;7.862;2023-02-26T07:45:01;2.50;99.90
12303;DHT22;6214;48.012;7.862;2023-02-26T07:47:28;2.70;99.90
12303;DHT22;6214;48.012;7.862;2023-02-26T07:49:56;3.00;99.90
12303;DHT22;6214;48.012;7.862;2023-02-26T07:52:23;4.10;99.90
12303;DHT22;6214;48.012;7.862;2023-02-26T07:54:50;4.20;99.90
12303;DHT22;6214;48.012;7.862;2023-02-26T07:57:18;3.90;99.90
12303;DHT22;6214;48.012;7.862;2023-02-26T07:59:45;3.70;99.90
12303;DHT22;6214;48.012;7.862;2023-02-26T08:02:12;3.60;99.90
12303;DHT22;6214;48.012;7.862;2023-02-26T08:04:39;3.60;99.90
12303;DHT22;6214;48.012;7.862;2023-02-26T08:07:06;3.70;99.90
12303;DHT22;6214;48.012;7.862;2023-02-26T08:09:33;3.60;99.90
12303;DHT22;6214;48.012;7.862;2023-02-26T08:12:00;3.40;99.90
12303;DHT22;6214;48.012;7.862;2023-02-26T08:14:27;3.10;99.90
12303;DHT22;6214;48.012;7.862;2023-02-26T08:16:54;2.90;99.90
12303;DHT22;6214;48.012;7.862;2023-02-26T08:19:21;2.90;99.90
12303;DHT22;6214;48.012;7.862;2023-02-26T08:21:47;3.00;99.90
12303;DHT22;6214;48.012;7.862;2023-02-26T08:24:16;3.00;99.90
12303;DHT22;6214;48.012;7.862;2023-02-26T08:26:43;3.20;99.90
12303;DHT22;6214;48.012;7.862;2023-02-26T08:29:12;3.90;99.90
12303;DHT22;6214;48.012;7.862;2023-02-26T08:31:39;4.10;99.90
12303;DHT22;6214;48.012;7.862;2023-02-26T08:34:05;3.80;99.90
12303;DHT22;6214;48.012;7.862;2023-02-26T08:36:32;4.10;99.90
12303;DHT22;6214;48.012;7.862;2023-02-26T08:38:59;4.10;99.90
12303;DHT22;6214;48.012;7.862;2023-02-26T08:41:26;3.60;99.90
12303;DHT22;6214;48.012;7.862;2023-02-26T08:43:55;3.30;99.90
12303;DHT22;6214;48.012;7.862;2023-02-26T08:46:22;4.10;99.90
12303;DHT22;6214;48.012;7.862;2023-02-26T08:48:50;3.60;99.90
12303;DHT22;6214;48.012;7.862;2023-02-26T08:51:18;3.40;99.90
12303;DHT22;6214;48.012;7.862;2023-02-26T08:53:45;3.30;99.90
12303;DHT22;6214;48.012;7.862;2023-02-26T08:56:13;3.20;99.90
12303;DHT22;6214;48.012;7.862;2023-02-26T08:58:39;2.80;99.90
12303;DHT22;6214;48.012;7.862;2023-02-26T09:01:07;2.70;99.90
12303;DHT22;6214;48.012;7.862;2023-02-26T09:03:34;3.10;99.90
12303;DHT22;6214;48.012;7.862;2023-02-26T09:06:01;3.10;99.90
12303;DHT22;6214;48.012;7.862;2023-02-26T09:08:31;3.00;99.90
12303;DHT22;6214;48.012;7.862;2023-02-26T09:11:01;3.10;99.90
12303;DHT22;6214;48.012;7.862;2023-02-26T09:13:29;3.30;99.90
12303;DHT22;6214;48.012;7.862;2023-02-26T09:15:56;3.60;99.90
12303;DHT22;6214;48.012;7.862;2023-02-26T09:18:23;4.30;99.90
12303;DHT22;6214;48.012;7.862;2023-02-26T09:20:50;4.80;99.90
12303;DHT22;6214;48.012;7.862;2023-02-26T09:23:17;4.80;99.90
12303;DHT22;6214;48.012;7.862;2023-02-26T09:25:44;7.20;99.90
12303;DHT22;6214;48.012;7.862;2023-02-26T09:28:11;9.30;99.90
12303;DHT22;6214;48.012;7.862;2023-02-26T09:30:38;9.20;97.00
12303;DHT22;6214;48.012;7.862;2023-02-26T09:33:05;7.80;97.00
12303;DHT22;6214;48.012;7.862;2023-02-26T09:35:32;7.10;97.60
12303;DHT22;6214;48.012;7.862;2023-02-26T09:37:59;6.70;97.50
12303;DHT22;6214;48.012;7.862;2023-02-26T09:40:42;5.90;98.60
12303;DHT22;6214;48.012;7.862;2023-02-26T09:46:30;5.20;99.90
12303;DHT22;6214;48.012;7.862;2023-02-26T09:49:19;4.80;99.90
12303;DHT22;6214;48.012;7.862;2023-02-26T09:51:52;4.60;99.90
12303;DHT22;6214;48.012;7.862;2023-02-26T09:54:25;4.40;99.90
12303;DHT22;6214;48.012;7.862;2023-02-26T09:56:56;4.40;99.90
12303;DHT22;6214;48.012;7.862;2023-02-26T09:59:28;4.10;99.90
12303;DHT22;6214;48.012;7.862;2023-02-26T10:02:15;3.80;99.90
12303;DHT22;6214;48.012;7.862;2023-02-26T10:05:03;3.80;99.90
12303;DHT22;6214;48.012;7.862;2023-02-26T10:10:37;4.20;99.90
12303;DHT22;6214;48.012;7.862;2023-02-26T10:13:09;3.80;99.90
12303;DHT22;6214;48.012;7.862;2023-02-26T10:15:41;3.70;99.90
12303;DHT22;6214;48.012;7.862;2023-02-26T10:18:09;3.70;99.90
12303;DHT22;6214;48.012;7.862;2023-02-26T10:25:46;3.50;99.90
12303;DHT22;6214;48.012;7.862;2023-02-26T10:30:49;3.60;99.90
12303;DHT22;6214;48.012;7.862;2023-02-26T10:36:04;4.30;99.90
12303;DHT22;6214;48.012;7.862;2023-02-26T10:38:34;4.40;99.90
12303;DHT22;6214;48.012;7.862;2023-02-26T10:41:09;4.10;99.90
12303;DHT22;6214;48.012;7.862;2023-02-26T10:43:47;4.00;99.90
12303;DHT22;6214;48.012;7.862;2023-02-26T10:46:20;4.00;99.90
12303;DHT22;6214;48.012;7.862;2023-02-26T10:49:20;4.10;99.90
12303;DHT22;6214;48.012;7.862;2023-02-26T10:51:41;4.50;99.90
12303;DHT22;6214;48.012;7.862;2023-02-26T10:54:30;4.70;99.90
12303;DHT22;6214;48.012;7.862;2023-02-26T10:56:59;4.90;99.90
12303;DHT22;6214;48.012;7.862;2023-02-26T10:59:26;5.60;99.90
12303;DHT22;6214;48.012;7.862;2023-02-26T11:01:54;5.80;99.90
12303;DHT22;6214;48.012;7.862;2023-02-26T11:04:23;6.20;99.90
12303;DHT22;6214;48.012;7.862;2023-02-26T11:06:57;6.10;99.90
12303;DHT22;6214;48.012;7.862;2023-02-26T11:09:30;5.80;99.90
12303;DHT22;6214;48.012;7.862;2023-02-26T11:14:33;5.40;99.90
12303;DHT22;6214;48.012;7.862;2023-02-26T11:17:03;5.00;99.90
12303;DHT22;6214;48.012;7.862;2023-02-26T11:19:33;4.70;99.90
12303;DHT22;6214;48.012;7.862;2023-02-26T11:22:02;4.50;99.90
12303;DHT22;6214;48.012;7.862;2023-02-26T11:24:31;4.20;99.90
12303;DHT22;6214;48.012;7.862;2023-02-26T11:27:00;3.80;99.90
12303;DHT22;6214;48.012;7.862;2023-02-26T11:29:40;3.90;99.90
12303;DHT22;6214;48.012;7.862;2023-02-26T11:32:19;4.00;99.90
12303;DHT22;6214;48.012;7.862;2023-02-26T11:34:49;4.20;99.90
12303;DHT22;6214;48.012;7.862;2023-02-26T11:37:22;4.10;99.90
12303;DHT22;6214;48.012;7.862;2023-02-26T11:39:55;4.10;99.90
12303;DHT22;6214;48.012;7.862;2023-02-26T11:42:24;4.30;99.90
12303;DHT22;6214;48.012;7.862;2023-02-26T11:44:51;3.70;99.90
12303;DHT22;6214;48.012;7.862;2023-02-26T11:47:23;3.80;99.90
12303;DHT22;6214;48.012;7.862;2023-02-26T11:49:53;3.80;99.90
12303;DHT22;6214;48.012;7.862;2023-02-26T11:52:22;3.90;99.90
12303;DHT22;6214;48.012;7.862;2023-02-26T11:54:58;4.00;99.90
12303;DHT22;6214;48.012;7.862;2023-02-26T11:57:28;4.10;99.90
12303;DHT22;6214;48.012;7.862;2023-02-26T11:59:58;4.20;99.90
12303;DHT22;6214;48.012;7.862;2023-02-26T12:02:31;4.40;99.90
12303;DHT22;6214;48.012;7.862;2023-02-26T12:05:04;4.50;99.90
12303;DHT22;6214;48.012;7.862;2023-02-26T12:07:32;4.50;99.90
12303;DHT22;6214;48.012;7.862;2023-02-26T12:09:59;4.50;99.90
12303;DHT22;6214;48.012;7.862;2023-02-26T12:12:30;4.50;99.90
12303;DHT22;6214;48.012;7.862;2023-02-26T12:15:26;4.70;99.90
12303;DHT22;6214;48.012;7.862;2023-02-26T12:20:35;5.10;99.90
12303;DHT22;6214;48.012;7.862;2023-02-26T12:25:57;5.30;99.90
12303;DHT22;6214;48.012;7.862;2023-02-26T13:00:57;4.60;99.90
12303;DHT22;6214;48.012;7.862;2023-02-26T13:09:24;4.40;99.90
12303;DHT22;6214;48.012;7.862;2023-02-26T13:14:42;4.90;99.90
12303;DHT22;6214;48.012;7.862;2023-02-26T13:20:12;5.30;99.90
12303;DHT22;6214;48.012;7.862;2023-02-26T13:22:46;5.50;99.90
12303;DHT22;6214;48.012;7.862;2023-02-26T13:28:39;5.20;99.90
12303;DHT22;6214;48.012;7.862;2023-02-26T13:33:45;5.40;99.90
12303;DHT22;6214;48.012;7.862;2023-02-26T13:36:15;5.10;99.90
12303;DHT22;6214;48.012;7.862;2023-02-26T13:41:16;4.70;99.90
12303;DHT22;6214;48.012;7.862;2023-02-26T13:43:51;4.80;99.90
12303;DHT22;6214;48.012;7.862;2023-02-26T13:49:35;4.70;99.90
12303;DHT22;6214;48.012;7.862;2023-02-26T13:52:25;4.60;99.90
12303;DHT22;6214;48.012;7.862;2023-02-26T13:54:52;4.90;99.90
12303;DHT22;6214;48.012;7.862;2023-02-26T14:02:54;5.10;99.90
12303;DHT22;6214;48.012;7.862;2023-02-26T14:10:45;5.00;99.90
12303;DHT22;6214;48.012;7.862;2023-02-26T14:13:21;4.90;99.90
12303;DHT22;6214;48.012;7.862;2023-02-26T14:24:16;4.80;99.90
12303;DHT22;6214;48.012;7.862;2023-02-26T14:26:50;4.70;99.90
12303;DHT22;6214;48.012;7.862;2023-02-26T14:32:30;4.10;99.90
12303;DHT22;6214;48.012;7.862;2023-02-26T14:35:09;3.80;99.90
12303;DHT22;6214;48.012;7.862;2023-02-26T14:37:38;3.90;99.90
12303;DHT22;6214;48.012;7.862;2023-02-26T14:40:16;3.80;99.90
12303;DHT22;6214;48.012;7.862;2023-02-26T14:42:57;3.80;99.90
12303;DHT22;6214;48.012;7.862;2023-02-26T14:45:31;3.60;99.90
12303;DHT22;6214;48.012;7.862;2023-02-26T14:48:00;3.50;99.90
12303;DHT22;6214;48.012;7.862;2023-02-26T15:00:19;4.00;99.90
12303;DHT22;6214;48.012;7.862;2023-02-26T15:03:10;4.10;99.90
12303;DHT22;6214;48.012;7.862;2023-02-26T15:05:46;4.00;99.90
12303;DHT22;6214;48.012;7.862;2023-02-26T15:20:05;4.70;99.90
12303;DHT22;6214;48.012;7.862;2023-02-26T15:25:22;4.40;99.90
12303;DHT22;6214;48.012;7.862;2023-02-26T15:27:52;4.40;99.90
12303;DHT22;6214;48.012;7.862;2023-02-26T15:30:19;4.30;99.90
12303;DHT22;6214;48.012;7.862;2023-02-26T15:32:46;4.40;99.90
12303;DHT22;6214;48.012;7.862;2023-02-26T15:35:15;4.40;99.90
12303;DHT22;6214;48.012;7.862;2023-02-26T15:37:48;4.00;99.90
12303;DHT22;6214;48.012;7.862;2023-02-26T15:40:16;3.50;99.90
12303;DHT22;6214;48.012;7.862;2023-02-26T15:42:44;3.40;99.90
12303;DHT22;6214;48.012;7.862;2023-02-26T15:45:27;3.50;99.90
12303;DHT22;6214;48.012;7.862;2023-02-26T15:48:00;3.50;99.90
12303;DHT22;6214;48.012;7.862;2023-02-26T15:50:30;3.70;99.90
12303;DHT22;6214;48.012;7.862;2023-02-26T15:52:59;4.00;99.90
12303;DHT22;6214;48.012;7.862;2023-02-26T15:55:32;4.00;99.90
12303;DHT22;6214;48.012;7.862;2023-02-26T15:58:01;4.10;99.90
12303;DHT22;6214;48.012;7.862;2023-02-26T16:00:32;3.80;99.90
12303;DHT22;6214;48.012;7.862;2023-02-26T16:02:59;3.60;99.90
12303;DHT22;6214;48.012;7.862;2023-02-26T16:05:27;3.50;99.90
12303;DHT22;6214;48.012;7.862;2023-02-26T16:07:55;3.50;99.90
12303;DHT22;6214;48.012;7.862;2023-02-26T16:10:33;3.30;99.90
12303;DHT22;6214;48.012;7.862;2023-02-26T16:13:05;3.20;99.90
12303;DHT22;6214;48.012;7.862;2023-02-26T16:15:37;3.10;99.90
12303;DHT22;6214;48.012;7.862;2023-02-26T16:18:07;3.10;99.90
12303;DHT22;6214;48.012;7.862;2023-02-26T16:20:39;3.00;99.90
12303;DHT22;6214;48.012;7.862;2023-02-26T16:23:14;3.00;99.90
12303;DHT22;6214;48.012;7.862;2023-02-26T16:28:23;3.20;99.90
12303;DHT22;6214;48.012;7.862;2023-02-26T16:30:54;3.30;99.90
12303;DHT22;6214;48.012;7.862;2023-02-26T16:33:23;3.40;99.90
12303;DHT22;6214;48.012;7.862;2023-02-26T16:36:03;3.40;99.90
12303;DHT22;6214;48.012;7.862;2023-02-26T16:38:42;3.50;99.90
12303;DHT22;6214;48.012;7.862;2023-02-26T16:41:10;3.60;99.90
12303;DHT22;6214;48.012;7.862;2023-02-26T16:46:14;3.70;99.90
12303;DHT22;6214;48.012;7.862;2023-02-26T16:48:55;3.60;99.90
12303;DHT22;6214;48.012;7.862;2023-02-26T16:51:26;3.70;99.90
12303;DHT22;6214;48.012;7.862;2023-02-26T16:54:00;3.70;99.90
12303;DHT22;6214;48.012;7.862;2023-02-26T16:56:32;3.70;99.90
12303;DHT22;6214;48.012;7.862;2023-02-26T16:59:21;3.70;99.90
12303;DHT22;6214;48.012;7.862;2023-02-26T17:01:52;3.60;99.90
12303;DHT22;6214;48.012;7.862;2023-02-26T17:04:24;3.60;99.90
12303;DHT22;6214;48.012;7.862;2023-02-26T17:06:51;3.60;99.90
12303;DHT22;6214;48.012;7.862;2023-02-26T17:12:11;3.70;99.90
12303;DHT22;6214;48.012;7.862;2023-02-26T17:15:07;3.60;99.90
12303;DHT22;6214;48.012;7.862;2023-02-26T17:17:28;3.60;99.90
12303;DHT22;6214;48.012;7.862;2023-02-26T17:19:55;3.70;99.90
12303;DHT22;6214;48.012;7.862;2023-02-26T17:22:26;3.70;99.90
12303;DHT22;6214;48.012;7.862;2023-02-26T17:24:54;3.60;99.90
12303;DHT22;6214;48.012;7.862;2023-02-26T17:27:33;3.60;99.90
12303;DHT22;6214;48.012;7.862;2023-02-26T17:30:02;3.60;99.90
12303;DHT22;6214;48.012;7.862;2023-02-26T17:32:30;3.50;99.90
12303;DHT22;6214;48.012;7.862;2023-02-26T17:34:57;3.60;99.90
12303;DHT22;6214;48.012;7.862;2023-02-26T17:37:31;3.60;99.90
12303;DHT22;6214;48.012;7.862;2023-02-26T17:39:59;3.60;99.90
12303;DHT22;6214;48.012;7.862;2023-02-26T17:42:26;3.60;99.90
12303;DHT22;6214;48.012;7.862;2023-02-26T17:44:53;3.50;99.90
12303;DHT22;6214;48.012;7.862;2023-02-26T17:47:24;3.10;99.90
12303;DHT22;6214;48.012;7.862;2023-02-26T17:49:52;2.90;99.90
12303;DHT22;6214;48.012;7.862;2023-02-26T17:52:19;2.90;99.90
12303;DHT22;6214;48.012;7.862;2023-02-26T17:54:46;3.00;99.90
12303;DHT22;6214;48.012;7.862;2023-02-26T17:57:20;3.00;99.90
12303;DHT22;6214;48.012;7.862;2023-02-26T17:59:47;3.10;99.90
12303;DHT22;6214;48.012;7.862;2023-02-26T18:02:20;3.10;99.90
12303;DHT22;6214;48.012;7.862;2023-02-26T18:04:48;3.20;99.90
12303;DHT22;6214;48.012;7.862;2023-02-26T18:07:16;3.20;99.90
12303;DHT22;6214;48.012;7.862;2023-02-26T18:09:43;3.40;99.90
12303;DHT22;6214;48.012;7.862;2023-02-26T18:12:16;3.40;99.90
12303;DHT22;6214;48.012;7.862;2023-02-26T18:14:44;3.50;99.90
12303;DHT22;6214;48.012;7.862;2023-02-26T18:17:13;3.40;99.90
12303;DHT22;6214;48.012;7.862;2023-02-26T18:19:41;3.40;99.90
12303;DHT22;6214;48.012;7.862;2023-02-26T18:22:12;3.30;99.90
12303;DHT22;6214;48.012;7.862;2023-02-26T18:24:40;3.40;99.90
12303;DHT22;6214;48.012;7.862;2023-02-26T18:27:15;3.40;99.90
12303;DHT22;6214;48.012;7.862;2023-02-26T18:29:42;3.40;99.90
12303;DHT22;6214;48.012;7.862;2023-02-26T18:32:23;3.40;99.90
12303;DHT22;6214;48.012;7.862;2023-02-26T18:34:50;3.40;99.90
12303;DHT22;6214;48.012;7.862;2023-02-26T18:37:21;3.40;99.90
12303;DHT22;6214;48.012;7.862;2023-02-26T18:39:49;3.50;99.90
12303;DHT22;6214;48.012;7.862;2023-02-26T18:42:19;3.50;99.90
12303;DHT22;6214;48.012;7.862;2023-02-26T18:44:47;3.50;99.90
12303;DHT22;6214;48.012;7.862;2023-02-26T18:47:15;3.50;99.90
12303;DHT22;6214;48.012;7.862;2023-02-26T18:49:42;3.50;99.90
12303;DHT22;6214;48.012;7.862;2023-02-26T18:52:09;3.50;99.90
12303;DHT22;6214;48.012;7.862;2023-02-26T18:54:36;3.50;99.90
12303;DHT22;6214;48.012;7.862;2023-02-26T18:57:04;3.50;99.90
12303;DHT22;6214;48.012;7.862;2023-02-26T18:59:32;3.50;99.90
12303;DHT22;6214;48.012;7.862;2023-02-26T19:02:03;3.40;99.90
12303;DHT22;6214;48.012;7.862;2023-02-26T19:04:30;3.50;99.90
12303;DHT22;6214;48.012;7.862;2023-02-26T19:06:57;3.50;99.90
12303;DHT22;6214;48.012;7.862;2023-02-26T19:09:27;3.50;99.90
12303;DHT22;6214;48.012;7.862;2023-02-26T19:11:55;3.50;99.90
12303;DHT22;6214;48.012;7.862;2023-02-26T19:14:23;3.40;99.90
12303;DHT22;6214;48.012;7.862;2023-02-26T19:16:50;3.30;99.90
12303;DHT22;6214;48.012;7.862;2023-02-26T19:19:17;3.40;99.90
12303;DHT22;6214;48.012;7.862;2023-02-26T19:21:44;3.50;99.90
12303;DHT22;6214;48.012;7.862;2023-02-26T19:24:12;3.50;99.90
12303;DHT22;6214;48.012;7.862;2023-02-26T19:26:39;3.60;99.90
12303;DHT22;6214;48.012;7.862;2023-02-26T19:29:10;3.50;99.90
12303;DHT22;6214;48.012;7.862;2023-02-26T19:31:38;3.60;99.90
12303;DHT22;6214;48.012;7.862;2023-02-26T19:34:05;3.60;99.90
12303;DHT22;6214;48.012;7.862;2023-02-26T19:36:32;3.50;99.90
12303;DHT22;6214;48.012;7.862;2023-02-26T19:39:01;3.40;99.90
12303;DHT22;6214;48.012;7.862;2023-02-26T19:41:28;3.50;99.90
12303;DHT22;6214;48.012;7.862;2023-02-26T19:43:56;3.40;99.90